createdAt,value
2018-10-03T00:01:21.030Z,97184.37
2018-10-03T00:03:51.057Z,97186.20
2018-10-03T00:06:21.089Z,97183.44
2018-10-03T00:08:51.038Z,97182.59
2018-10-03T00:11:21.060Z,97181.60
2018-10-03T00:13:51.149Z,97187.81
2018-10-03T00:16:21.167Z,97191.68
2018-10-03T00:18:51.083Z,97194.53
2018-10-03T00:21:21.094Z,97209.02
2018-10-03T00:23:50.218Z,97214.41
2018-10-03T00:26:19.454Z,97227.28
2018-10-03T00:28:48.591Z,97224.44
2018-10-03T00:31:17.877Z,97216.75
2018-10-03T00:33:47.030Z,97222.84
2018-10-03T00:36:16.174Z,97225.36
2018-10-03T00:38:45.307Z,97219.69
2018-10-03T00:41:14.455Z,97225.36
2018-10-03T00:43:43.623Z,97222.12
2018-10-03T00:46:12.756Z,97226.89
2018-10-03T00:48:41.883Z,97230.73
2018-10-03T00:51:11.026Z,97224.84
2018-10-03T00:53:40.162Z,97222.80
2018-10-03T00:56:09.345Z,97211.34
2018-10-03T00:58:38.482Z,97207.68
2018-10-03T01:01:08.034Z,97203.73
2018-10-03T01:03:37.172Z,97208.50
2018-10-03T01:06:06.307Z,97212.95
2018-10-03T01:08:35.590Z,97202.00
2018-10-03T01:11:04.726Z,97207.27
2018-10-03T01:13:33.874Z,97199.03
2018-10-03T01:16:03.015Z,97206.95
2018-10-03T01:18:32.135Z,97210.93
2018-10-03T01:21:01.275Z,97203.20
2018-10-03T01:23:30.545Z,97196.99
2018-10-03T01:25:59.702Z,97204.63
2018-10-03T01:28:28.821Z,97200.02
2018-10-03T01:30:58.166Z,97198.39
2018-10-03T01:33:27.362Z,97203.96
2018-10-03T01:35:56.749Z,97199.23
2018-10-03T01:38:25.935Z,97189.59
2018-10-03T01:40:56.287Z,97179.00
2018-10-03T01:43:26.584Z,97191.51
2018-10-03T01:45:55.711Z,97187.91
2018-10-03T01:48:24.847Z,97202.95
2018-10-03T01:50:53.991Z,97192.67
2018-10-03T01:53:23.234Z,97195.08
2018-10-03T01:55:52.372Z,97192.67
2018-10-03T01:58:21.519Z,97192.61
2018-10-03T02:00:51.679Z,97185.47
2018-10-03T02:03:21.330Z,97191.47
2018-10-03T02:05:51.439Z,97197.05
2018-10-03T02:08:21.435Z,97194.20
2018-10-03T02:10:51.447Z,97196.27
2018-10-03T02:13:20.599Z,97196.75
2018-10-03T02:15:49.746Z,97203.15
2018-10-03T02:18:18.927Z,97208.66
2018-10-03T02:20:48.073Z,97211.88
2018-10-03T02:23:17.260Z,97215.39
2018-10-03T02:25:46.406Z,97216.48
2018-10-03T02:28:15.567Z,97214.41
2018-10-03T02:30:44.740Z,97203.35
2018-10-03T02:33:13.891Z,97201.94
2018-10-03T02:35:43.038Z,97209.66
2018-10-03T02:38:12.232Z,97212.09
2018-10-03T02:40:41.389Z,97211.45
2018-10-03T02:43:10.538Z,97216.04
2018-10-03T02:45:39.691Z,97218.59
2018-10-03T02:48:08.869Z,97218.51
2018-10-03T02:50:38.011Z,97215.44
2018-10-03T02:53:07.267Z,97213.23
2018-10-03T02:55:36.407Z,97207.92
2018-10-03T02:58:05.635Z,97208.56
2018-10-03T03:00:34.743Z,97208.47
2018-10-03T03:03:03.883Z,97200.77
2018-10-03T03:05:33.015Z,97194.38
2018-10-03T03:08:02.184Z,97194.68
2018-10-03T03:10:31.345Z,97184.34
2018-10-03T03:13:00.508Z,97189.42
2018-10-03T03:15:29.692Z,97202.02
2018-10-03T03:17:58.838Z,97202.82
2018-10-03T03:20:27.976Z,97197.02
2018-10-03T03:22:57.116Z,97210.75
2018-10-03T03:25:26.255Z,97217.93
2018-10-03T03:27:55.407Z,97217.14
2018-10-03T03:30:24.540Z,97224.55
2018-10-03T03:32:53.788Z,97219.14
2018-10-03T03:35:22.988Z,97222.30
2018-10-03T03:37:52.195Z,97222.41
2018-10-03T03:40:21.574Z,97218.02
2018-10-03T03:42:51.679Z,97218.75
2018-10-03T03:45:21.570Z,97213.79
2018-10-03T03:47:51.588Z,97223.02
2018-10-03T03:50:21.614Z,97219.06
2018-10-03T03:52:51.600Z,97220.70
2018-10-03T03:55:21.592Z,97215.30
2018-10-03T03:57:51.666Z,97214.09
2018-10-03T04:00:21.747Z,97225.97
2018-10-03T04:02:51.667Z,97235.19
2018-10-03T04:05:20.797Z,97235.48
2018-10-03T04:07:49.964Z,97236.83
2018-10-03T04:10:19.092Z,97236.50
2018-10-03T04:12:48.243Z,97247.80
2018-10-03T04:15:17.374Z,97238.16
2018-10-03T04:17:46.543Z,97239.57
2018-10-03T04:20:15.679Z,97235.31
2018-10-03T04:22:44.807Z,97241.37
2018-10-03T04:25:13.931Z,97245.23
2018-10-03T04:27:43.073Z,97249.53
2018-10-03T04:30:12.207Z,97250.13
2018-10-03T04:32:41.359Z,97250.12
2018-10-03T04:35:10.520Z,97255.10
2018-10-03T04:37:39.649Z,97254.59
2018-10-03T04:40:08.787Z,97249.52
2018-10-03T04:42:38.114Z,97243.63
2018-10-03T04:45:07.270Z,97228.48
2018-10-03T04:47:36.423Z,97218.14
2018-10-03T04:50:06.436Z,97234.55
2018-10-03T04:52:35.583Z,97227.59
2018-10-03T04:55:04.857Z,97228.48
2018-10-03T04:57:33.945Z,97220.66
2018-10-03T05:00:03.147Z,97233.69
2018-10-03T05:02:32.290Z,97234.39
2018-10-03T05:05:01.433Z,97228.52
2018-10-03T05:07:30.563Z,97237.94
2018-10-03T05:09:59.708Z,97234.48
2018-10-03T05:12:28.841Z,97236.09
2018-10-03T05:14:57.991Z,97240.47
2018-10-03T05:17:27.158Z,97238.23
2018-10-03T05:19:56.331Z,97241.69
2018-10-03T05:22:25.478Z,97249.89
2018-10-03T05:24:54.891Z,97254.69
2018-10-03T05:27:24.296Z,97262.58
2018-10-03T05:29:53.439Z,97266.03
2018-10-03T05:32:22.579Z,97263.88
2018-10-03T05:34:51.930Z,97269.79
2018-10-03T05:37:21.931Z,97274.67
2018-10-03T05:39:51.868Z,97283.94
2018-10-03T05:42:21.858Z,97279.26
2018-10-03T05:44:51.920Z,97289.39
2018-10-03T05:47:21.963Z,97290.53
2018-10-03T05:49:52.931Z,97292.43
2018-10-03T05:52:22.073Z,97294.69
2018-10-03T05:54:51.972Z,97296.10
2018-10-03T05:57:22.149Z,97298.55
2018-10-03T05:59:51.383Z,97293.66
2018-10-03T06:02:21.770Z,97294.69
2018-10-03T06:04:51.932Z,97297.02
2018-10-03T06:07:21.943Z,97302.19
2018-10-03T06:09:51.919Z,97302.91
2018-10-03T06:12:21.975Z,97309.02
2018-10-03T06:14:52.007Z,97308.19
2018-10-03T06:17:22.029Z,97319.47
2018-10-03T06:19:52.049Z,97318.66
2018-10-03T06:22:21.946Z,97320.08
2018-10-03T06:24:51.982Z,97328.80
2018-10-03T06:27:21.975Z,97325.45
2018-10-03T06:29:52.002Z,97332.67
2018-10-03T06:32:22.036Z,97325.38
2018-10-03T06:34:52.064Z,97328.40
2018-10-03T06:37:22.055Z,97338.58
2018-10-03T06:39:58.574Z,97347.01
2018-10-03T06:42:27.716Z,97341.23
2018-10-03T06:44:56.875Z,97350.58
2018-10-03T06:47:26.028Z,97351.89
2018-10-03T06:49:55.560Z,97355.06
2018-10-03T06:52:24.787Z,97358.39
2018-10-03T06:54:54.201Z,97369.66
2018-10-03T06:57:23.391Z,97369.16
2018-10-03T06:59:52.539Z,97371.41
2018-10-03T07:02:22.139Z,97379.23
2018-10-03T07:04:52.163Z,97376.30
2018-10-03T07:07:22.215Z,97386.86
2018-10-03T07:09:52.292Z,97381.26
2018-10-03T07:12:22.119Z,97391.02
2018-10-03T07:14:52.184Z,97384.64
2018-10-03T07:17:22.131Z,97386.65
2018-10-03T07:19:52.143Z,97388.88
2018-10-03T07:22:22.247Z,97387.16
2018-10-03T07:24:51.461Z,97389.37
2018-10-03T07:27:20.631Z,97394.85
2018-10-03T07:29:49.837Z,97402.22
2018-10-03T07:32:18.987Z,97404.95
2018-10-03T07:34:48.419Z,97410.53
2018-10-03T07:37:17.563Z,97413.97
2018-10-03T07:39:46.963Z,97421.63
2018-10-03T07:42:16.135Z,97425.69
2018-10-03T07:44:45.297Z,97423.88
2018-10-03T07:47:14.443Z,97422.66
2018-10-03T07:49:43.586Z,97416.84
2018-10-03T07:52:12.796Z,97421.02
2018-10-03T07:54:42.007Z,97413.69
2018-10-03T07:57:11.186Z,97411.55
2018-10-03T07:59:40.314Z,97410.97
2018-10-03T08:02:09.455Z,97409.53
2018-10-03T08:04:38.592Z,97403.51
2018-10-03T08:07:07.900Z,97405.27
2018-10-03T08:09:37.066Z,97400.47
2018-10-03T08:12:06.206Z,97395.91
2018-10-03T08:14:35.348Z,97385.12
2018-10-03T08:17:04.486Z,97388.13
2018-10-03T08:19:33.663Z,97395.39
2018-10-03T08:22:02.808Z,97407.59
2018-10-03T08:24:32.017Z,97415.40
2018-10-03T08:27:01.133Z,97429.23
2018-10-03T08:29:30.264Z,97421.79
2018-10-03T08:31:59.414Z,97429.10
2018-10-03T08:34:28.549Z,97427.47
2018-10-03T08:36:57.747Z,97433.33
2018-10-03T08:39:26.888Z,97423.95
2018-10-03T08:41:56.015Z,97430.56
2018-10-03T08:44:25.149Z,97436.39
2018-10-03T08:46:54.283Z,97439.40
2018-10-03T08:49:23.414Z,97442.44
2018-10-03T08:51:52.583Z,97450.28
2018-10-03T08:54:22.372Z,97446.41
2018-10-03T08:56:52.394Z,97447.20
2018-10-03T08:59:22.412Z,97442.61
2018-10-03T09:01:52.579Z,97445.66
2018-10-03T09:04:23.495Z,97445.64
2018-10-03T09:06:52.630Z,97438.73
2018-10-03T09:09:22.383Z,97438.82
2018-10-03T09:11:52.408Z,97436.64
2018-10-03T09:14:22.419Z,97438.78
2018-10-03T09:16:52.655Z,97437.96
2018-10-03T09:19:22.636Z,97443.89
2018-10-03T09:21:52.410Z,97449.92
2018-10-03T09:24:21.534Z,97446.86
2018-10-03T09:26:50.687Z,97454.69
2018-10-03T09:29:19.830Z,97453.86
2018-10-03T09:31:49.531Z,97455.48
2018-10-03T09:34:18.674Z,97458.33
2018-10-03T09:36:47.831Z,97469.87
2018-10-03T09:39:17.030Z,97465.53
2018-10-03T09:41:46.187Z,97470.63
2018-10-03T09:44:15.431Z,97467.36
2018-10-03T09:46:44.821Z,97454.48
2018-10-03T09:49:14.023Z,97453.27
2018-10-03T09:51:43.167Z,97452.73
2018-10-03T09:54:12.303Z,97463.89
2018-10-03T09:56:41.523Z,97463.31
2018-10-03T09:59:10.677Z,97461.22
2018-10-03T10:01:39.830Z,97466.25
2018-10-03T10:04:08.978Z,97461.56
2018-10-03T10:06:38.135Z,97465.46
2018-10-03T10:09:09.790Z,97460.66
2018-10-03T10:11:39.033Z,97467.72
2018-10-03T10:14:08.087Z,97471.05
2018-10-03T10:16:37.228Z,97477.92
2018-10-03T10:19:06.483Z,97467.09
2018-10-03T10:21:35.647Z,97475.80
2018-10-03T10:24:04.856Z,97475.40
2018-10-03T10:26:34.000Z,97472.25
2018-10-03T10:29:04.143Z,97478.68
2018-10-03T10:31:33.284Z,97470.02
2018-10-03T10:34:03.427Z,97478.45
2018-10-03T10:36:32.662Z,97478.37
2018-10-03T10:39:01.825Z,97476.63
2018-10-03T10:41:31.161Z,97485.41
2018-10-03T10:44:00.116Z,97483.58
2018-10-03T10:46:29.292Z,97486.67
2018-10-03T10:48:58.413Z,97480.10
2018-10-03T10:51:27.658Z,97483.36
2018-10-03T10:53:56.797Z,97483.98
2018-10-03T10:56:25.956Z,97482.23
2018-10-03T10:58:55.182Z,97484.56
2018-10-03T11:01:24.315Z,97483.16
2018-10-03T11:03:53.647Z,97494.83
2018-10-03T11:06:22.834Z,97498.66
2018-10-03T11:08:52.707Z,97500.98
2018-10-03T11:11:22.718Z,97500.83
2018-10-03T11:13:52.742Z,97502.27
2018-10-03T11:16:22.672Z,97503.75
2018-10-03T11:18:52.778Z,97497.31
2018-10-03T11:21:22.789Z,97496.72
2018-10-03T11:23:53.058Z,97499.89
2018-10-03T11:26:22.803Z,97496.92
2018-10-03T11:28:52.707Z,97493.47
2018-10-03T11:31:22.818Z,97497.59
2018-10-03T11:33:52.787Z,97502.75
2018-10-03T11:36:22.787Z,97506.53
2018-10-03T11:38:52.815Z,97498.78
2018-10-03T11:41:22.877Z,97501.01
2018-10-03T11:43:52.950Z,97493.92
2018-10-03T11:46:22.919Z,97508.84
2018-10-03T11:48:52.857Z,97503.31
2018-10-03T11:51:22.795Z,97504.77
2018-10-03T11:53:52.927Z,97505.95
2018-10-03T11:56:22.835Z,97504.02
2018-10-03T11:58:52.847Z,97513.10
2018-10-03T12:01:22.863Z,97508.87
2018-10-03T12:03:52.980Z,97510.56
2018-10-03T12:06:22.988Z,97508.20
2018-10-03T12:08:52.962Z,97496.75
2018-10-03T12:11:22.827Z,97509.81
2018-10-03T12:13:52.911Z,97505.11
2018-10-03T12:16:22.888Z,97502.74
2018-10-03T12:18:52.956Z,97506.44
2018-10-03T12:21:22.088Z,97503.03
2018-10-03T12:23:51.264Z,97500.09
2018-10-03T12:26:20.420Z,97498.62
2018-10-03T12:28:49.584Z,97503.17
2018-10-03T12:31:18.726Z,97508.34
2018-10-03T12:33:48.036Z,97505.76
2018-10-03T12:36:17.254Z,97503.82
2018-10-03T12:38:46.459Z,97506.05
2018-10-03T12:41:15.650Z,97509.81
2018-10-03T12:43:44.833Z,97515.11
2018-10-03T12:46:13.992Z,97509.69
2018-10-03T12:48:43.842Z,97508.77
2018-10-03T12:51:13.127Z,97513.53
2018-10-03T12:53:42.314Z,97515.05
2018-10-03T12:56:11.463Z,97511.34
2018-10-03T12:58:40.659Z,97507.30
2018-10-03T13:01:10.659Z,97505.40
2018-10-03T13:03:40.749Z,97514.27
2018-10-03T13:06:10.672Z,97509.13
2018-10-03T13:08:39.860Z,97506.39
2018-10-03T13:11:09.087Z,97508.09
2018-10-03T13:13:38.313Z,97507.51
2018-10-03T13:16:07.665Z,97513.11
2018-10-03T13:18:36.819Z,97504.56
2018-10-03T13:21:05.979Z,97502.84
2018-10-03T13:23:35.138Z,97504.16
2018-10-03T13:26:04.347Z,97499.55
2018-10-03T13:28:33.515Z,97492.27
2018-10-03T13:31:02.656Z,97496.00
2018-10-03T13:33:31.855Z,97502.70
2018-10-03T13:36:01.073Z,97497.39
2018-10-03T13:38:30.247Z,97494.52
2018-10-03T13:40:59.507Z,97503.17
2018-10-03T13:43:28.639Z,97504.11
2018-10-03T13:45:57.851Z,97507.58
2018-10-03T13:48:27.866Z,97501.02
2018-10-03T13:50:57.043Z,97510.70
2018-10-03T13:53:26.276Z,97508.98
2018-10-03T13:55:55.503Z,97507.22
2018-10-03T13:58:24.650Z,97503.89
2018-10-03T14:00:53.911Z,97498.80
2018-10-03T14:03:23.203Z,97498.90
2018-10-03T14:05:53.260Z,97499.77
2018-10-03T14:08:23.211Z,97488.58
2018-10-03T14:10:53.426Z,97492.13
2018-10-03T14:13:23.270Z,97495.21
2018-10-03T14:15:54.243Z,97487.03
2018-10-03T14:18:23.689Z,97494.34
2018-10-03T14:20:53.236Z,97495.36
2018-10-03T14:23:24.128Z,97493.95
2018-10-03T14:25:53.589Z,97500.91
2018-10-03T14:28:25.235Z,97489.76
2018-10-03T14:30:55.833Z,97490.58
2018-10-03T14:33:25.737Z,97479.64
2018-10-03T14:35:55.374Z,97481.80
2018-10-03T14:38:24.628Z,97483.19
2018-10-03T14:40:53.787Z,97486.28
2018-10-03T14:43:23.991Z,97482.25
2018-10-03T14:45:53.643Z,97487.92
2018-10-03T14:48:23.452Z,97486.37
2018-10-03T14:50:53.451Z,97488.50
2018-10-03T14:53:23.347Z,97486.37
2018-10-03T14:55:53.375Z,97489.39
2018-10-03T14:58:23.488Z,97484.00
2018-10-03T15:00:53.448Z,97491.97
2018-10-03T15:03:23.426Z,97490.98
2018-10-03T15:05:53.547Z,97491.70
2018-10-03T15:08:23.451Z,97491.13
2018-10-03T15:10:53.516Z,97488.77
2018-10-03T15:13:23.459Z,97487.28
2018-10-03T15:31:19.903Z,97495.60
2018-10-03T15:33:49.055Z,97491.76
2018-10-03T15:36:18.191Z,97489.25
2018-10-03T15:38:47.357Z,97495.45
2018-10-03T15:41:16.510Z,97494.63
2018-10-03T15:43:45.659Z,97495.96
2018-10-03T15:46:14.855Z,97498.75
2018-10-03T15:48:44.026Z,97503.78
2018-10-03T15:51:13.355Z,97506.88
2018-10-03T15:53:42.556Z,97503.50
2018-10-03T15:56:11.716Z,97503.78
2018-10-03T15:58:40.846Z,97504.82
2018-10-03T16:01:10.042Z,97515.27
2018-10-03T16:03:39.334Z,97515.95
2018-10-03T16:06:08.495Z,97507.30
2018-10-03T16:08:37.650Z,97513.44
2018-10-03T16:11:06.819Z,97520.94
2018-10-03T16:13:35.999Z,97523.55
2018-10-03T16:16:05.135Z,97520.72
2018-10-03T16:18:34.289Z,97518.88
2018-10-03T16:21:03.434Z,97525.16
2018-10-03T16:23:32.571Z,97523.66
2018-10-03T16:26:01.745Z,97530.98
2018-10-03T16:28:30.869Z,97532.98
2018-10-03T16:31:00.007Z,97533.98
2018-10-03T16:33:29.143Z,97543.56
2018-10-03T16:35:58.299Z,97543.12
2018-10-03T16:38:27.434Z,97540.16
2018-10-03T16:40:56.571Z,97538.75
2018-10-03T16:43:25.701Z,97538.83
2018-10-03T16:45:55.141Z,97547.17
2018-10-03T16:48:24.290Z,97551.66
2018-10-03T16:50:53.799Z,97547.44
2018-10-03T16:53:23.751Z,97560.17
2018-10-03T16:55:53.808Z,97564.00
2018-10-03T16:58:23.870Z,97564.83
2018-10-03T17:00:53.877Z,97567.29
2018-10-03T17:03:24.233Z,97568.75
2018-10-03T17:05:54.179Z,97566.23
2018-10-03T17:08:23.748Z,97566.91
2018-10-03T17:10:54.492Z,97566.12
2018-10-03T17:13:23.959Z,97573.05
2018-10-03T17:15:55.588Z,97578.64
2018-10-03T17:18:24.844Z,97577.91
2018-10-03T17:20:54.383Z,97583.21
2018-10-03T17:23:23.930Z,97585.50
2018-10-03T17:25:53.886Z,97586.61
2018-10-03T17:28:23.911Z,97589.77
2018-10-03T17:30:53.839Z,97588.56
2018-10-03T17:33:23.875Z,97589.64
2018-10-03T17:35:53.854Z,97595.36
2018-10-03T17:38:23.955Z,97591.76
2018-10-03T17:40:54.059Z,97596.59
2018-10-03T17:43:23.987Z,97594.45
2018-10-03T17:45:54.067Z,97592.57
2018-10-03T17:48:24.020Z,97592.34
2018-10-03T17:50:54.179Z,97593.13
2018-10-03T17:53:23.959Z,97597.43
2018-10-03T17:55:53.988Z,97594.69
2018-10-03T17:58:24.029Z,97595.02
2018-10-03T18:00:53.930Z,97595.34
2018-10-03T18:03:23.951Z,97593.09
2018-10-03T18:05:54.150Z,97591.06
2018-10-03T18:08:24.192Z,97595.38
2018-10-03T18:10:53.991Z,97589.34
2018-10-03T18:13:24.274Z,97594.14
2018-10-03T18:15:54.040Z,97591.60
2018-10-03T18:18:24.040Z,97596.81
2018-10-03T18:20:54.075Z,97601.61
2018-10-03T18:23:24.524Z,97609.36
2018-10-03T18:25:54.159Z,97609.97
2018-10-03T18:28:24.066Z,97612.63
2018-10-03T18:30:54.148Z,97613.02
2018-10-03T18:33:24.187Z,97609.76
2018-10-03T18:35:55.015Z,97618.52
2018-10-03T18:38:24.269Z,97615.97
2018-10-03T18:40:54.355Z,97619.22
2018-10-03T18:43:24.184Z,97617.80
2018-10-03T18:45:54.212Z,97620.67
2018-10-03T18:48:24.228Z,97626.27
2018-10-03T18:50:54.476Z,97625.65
2018-10-03T18:53:24.098Z,97618.73
2018-10-03T18:55:54.096Z,97622.61
2018-10-03T18:58:24.386Z,97622.48
2018-10-03T19:00:54.155Z,97620.86
2018-10-03T19:03:24.340Z,97620.27
2018-10-03T19:05:54.449Z,97633.39
2018-10-03T19:08:24.277Z,97633.98
2018-10-03T19:10:54.207Z,97633.06
2018-10-03T19:13:24.308Z,97640.50
2018-10-03T19:15:54.147Z,97643.33
2018-10-03T19:18:24.606Z,97649.95
2018-10-03T19:20:54.581Z,97645.06
2018-10-03T19:23:24.272Z,97640.98
2018-10-03T19:25:54.216Z,97647.48
2018-10-03T19:28:24.580Z,97646.57
2018-10-03T19:30:54.310Z,97649.71
2018-10-03T19:33:24.270Z,97646.27
2018-10-03T19:35:54.287Z,97654.30
2018-10-03T19:38:24.295Z,97651.94
2018-10-03T19:40:54.368Z,97657.53
2018-10-03T19:43:24.283Z,97649.59
2018-10-03T19:45:54.424Z,97658.45
2018-10-03T19:48:24.407Z,97660.45
2018-10-03T19:50:54.226Z,97661.77
2018-10-03T19:53:29.391Z,97650.88
2018-10-03T19:55:58.552Z,97657.68
2018-10-03T19:58:27.771Z,97653.48
2018-10-03T20:00:56.919Z,97660.41
2018-10-03T20:03:26.145Z,97663.55
2018-10-03T20:05:55.347Z,97668.34
2018-10-03T20:08:24.499Z,97669.51
2018-10-03T20:10:54.320Z,97662.93
2018-10-03T20:13:25.230Z,97656.84
2018-10-03T20:15:54.383Z,97662.90
2018-10-03T20:18:24.567Z,97670.17
2018-10-03T20:20:54.418Z,97663.18
2018-10-03T20:23:24.323Z,97669.81
2018-10-03T20:25:54.410Z,97673.69
2018-10-03T20:28:23.570Z,97664.36
2018-10-03T20:30:52.694Z,97672.23
2018-10-03T20:33:22.206Z,97668.73
2018-10-03T20:35:51.378Z,97664.14
2018-10-03T20:38:20.588Z,97668.22
2018-10-03T20:40:49.803Z,97671.05
2018-10-03T20:43:19.015Z,97672.79
2018-10-03T20:45:48.183Z,97671.28
2018-10-03T20:48:17.501Z,97665.61
2018-10-03T20:50:46.603Z,97667.33
2018-10-03T20:53:15.751Z,97670.98
2018-10-03T20:55:44.966Z,97667.58
2018-10-03T20:58:14.130Z,97670.06
2018-10-03T21:00:43.433Z,97664.28
2018-10-03T21:03:12.591Z,97668.33
2018-10-03T21:05:42.139Z,97663.16
2018-10-03T21:08:11.318Z,97668.73
2018-10-03T21:10:40.486Z,97676.66
2018-10-03T21:13:09.643Z,97673.12
2018-10-03T21:15:38.794Z,97677.23
2018-10-03T21:18:07.948Z,97673.48
2018-10-03T21:20:37.094Z,97678.83
2018-10-03T21:23:06.492Z,97680.45
2018-10-03T21:25:35.690Z,97680.64
2018-10-03T21:28:04.842Z,97684.52
2018-10-03T21:30:34.083Z,97684.41
2018-10-03T21:33:03.247Z,97687.95
2018-10-03T21:35:32.389Z,97685.77
2018-10-03T21:38:01.561Z,97692.27
2018-10-03T21:40:30.741Z,97688.16
2018-10-03T21:42:59.879Z,97683.93
2018-10-03T21:45:29.339Z,97687.95
2018-10-03T21:47:58.469Z,97690.91
2018-10-03T21:50:27.844Z,97693.25
2018-10-03T21:52:57.043Z,97687.02
2018-10-03T21:55:26.802Z,97689.13
2018-10-03T21:57:57.666Z,97687.48
2018-10-03T22:00:32.237Z,97683.09
2018-10-03T22:03:01.452Z,97686.27
2018-10-03T22:05:30.615Z,97686.23
2018-10-03T22:07:59.775Z,97688.38
2018-10-03T22:10:29.176Z,97679.52
2018-10-03T22:12:58.331Z,97678.94
2018-10-03T22:15:27.559Z,97678.72
2018-10-03T22:17:56.814Z,97677.97
2018-10-03T22:20:26.843Z,97673.41
2018-10-03T22:22:56.779Z,97677.22
2018-10-03T22:25:33.399Z,97676.27
2018-10-03T22:28:02.537Z,97674.86
2018-10-03T22:30:31.761Z,97678.19
2018-10-03T22:33:00.888Z,97671.80
2018-10-03T22:35:30.067Z,97675.56
2018-10-03T22:37:59.202Z,97679.41
2018-10-03T22:40:28.358Z,97677.94
2018-10-03T22:42:57.506Z,97669.23
2018-10-03T22:45:26.927Z,97669.80
2018-10-03T22:47:56.911Z,97672.67
2018-10-03T22:50:27.067Z,97676.08
2018-10-03T22:52:56.847Z,97675.89
2018-10-03T22:55:26.885Z,97673.12
2018-10-03T22:57:56.843Z,97678.47
2018-10-03T23:00:27.032Z,97679.68
2018-10-03T23:02:56.918Z,97678.16
2018-10-03T23:05:26.959Z,97683.27
2018-10-03T23:07:56.960Z,97679.78
2018-10-03T23:10:26.979Z,97681.47
2018-10-03T23:12:56.876Z,97678.34
2018-10-03T23:15:26.907Z,97683.80
2018-10-03T23:17:57.127Z,97678.71
2018-10-03T23:20:26.961Z,97677.77
2018-10-03T23:22:56.457Z,97672.80
2018-10-03T23:25:25.656Z,97675.73
2018-10-03T23:27:54.839Z,97675.37
2018-10-03T23:30:24.025Z,97676.45
2018-10-03T23:32:53.419Z,97678.72
2018-10-03T23:35:22.567Z,97676.45
2018-10-03T23:37:51.703Z,97678.53
2018-10-03T23:40:20.858Z,97684.97
2018-10-03T23:42:50.435Z,97684.71
2018-10-03T23:45:19.668Z,97686.92
2018-10-03T23:47:48.860Z,97684.11
2018-10-03T23:50:18.056Z,97682.08
2018-10-03T23:52:47.332Z,97687.99
2018-10-03T23:55:16.571Z,97684.77
2018-10-03T23:57:45.749Z,97693.99
